Calgary, Alberta

3:35 AM MDT on August 31, 2016 (GMT -0600)
Calgary International | | Change Station

Elev 3556 ft 51.11 °N, 114.02 °W | Updated 35 minutes ago

Mostly Cloudy
Mostly Cloudy
63 °F
Feels Like 63 °F
N
8
Wind Variable Wind from SSW

Today
High -- | Low -- °F
--% Chance of Precip.
Yesterday
High -- | Low -- °F
Precip. -- in
Pressure 29.99 in
Visibility 15.0 miles
Clouds Scattered Clouds 15000 ft
Mostly Cloudy 18000 ft
Mostly Cloudy 23000 ft
Dew Point 55 °F
Humidity 77%
Rainfall 0.00 in
Snow Depth Not available.
6:48 AM 8:22 PM
Waning Crescent, 1% visible
METAR CYYC 310900Z 21007KT 15SM SCT150 BKN180 BKN230 17/13 A3002 RMK AC3AS2CS1 SLP155 DENSITY ALT 4500FT
Pressure 29.99 in
Visibility 15.0 miles
Clouds Scattered Clouds 15000 ft
Mostly Cloudy 18000 ft
Mostly Cloudy 23000 ft
Dew Point 55 °F
Humidity 77%
Rainfall 0.00 in
Snow Depth Not available.
6:48 AM 8:22 PM
Waning Crescent, 1% visible
METAR CYYC 310900Z 21007KT 15SM SCT150 BKN180 BKN230 17/13 A3002 RMK AC3AS2CS1 SLP155 DENSITY ALT 4500FT

10-Day Weather Forecast

Almanac

Astronomy

Aug. 31, 2016 Rise Set
Actual Time
Civil Twilight
Nautical Twilight
Astronomical Twilight
Moon
Length of Visible Light
Length of Day
Tomorrow will be .
, % of the Moon is Illuminated

Today's Extremes

Country Highs Country Lows

Community

WunderPhotos

Upload Photos

1,936,059 photos uploaded!

WunderBlog® & News

Nearby

Air Quality

  Air Quality AQ Index Pollutant
Not available.

Snow Depth

Station Depth Elevation

Earthquake Activity

City Distance Mag. Time & Date
Minimum magnitude displayed is 2.5.

Coastal Water Temperatures

Place Temperature

Stations

Nearby Weather Stations

Station Location Temp. Windchill Dew Point Humidity Wind Precip. Elev Updated Type
                   

Watches & Warnings

There are currently no watches in effect.